Aviation Digital Data Service (ADDS)

Output produced by METARs form (1505 UTC 20 March 2019)
found at http://www.aviationweather.gov/metar/data/
 
METAR text: ZSNJ 201400Z VRB01MPS 5000 BR NSC 16/15 Q1009 NOSIG
Conditions at: ZSNJ (NANJING/LUKOU , CN) observed 1400 UTC 20 March 2019
Temperature: 16.0°C (61°F)
Dewpoint: 15.0°C (59°F) [RH = 94%]
Pressure (altimeter): 29.79 inches Hg (1009.0 mb)
Winds: variable direction winds at 2 MPH (2 knots; 1.0 m/s)
Visibility: 3 miles ( 5 km)
Ceiling: at least 12,000 feet AGL
Clouds: sky clear below 12,000 feet AGL
Weather: BR  (mist)

METAR text: ZSNJ 201300Z 25002MPS 7000 NSC 16/15 Q1008 NOSIG
Conditions at: ZSNJ (NANJING/LUKOU , CN) observed 1300 UTC 20 March 2019
Temperature: 16.0°C (61°F)
Dewpoint: 15.0°C (59°F) [RH = 94%]
Pressure (altimeter): 29.76 inches Hg (1008.0 mb)
Winds: from the WSW (250 degrees) at 5 MPH (4 knots; 2.1 m/s)
Visibility: 4 miles ( 7 km)
Ceiling: at least 12,000 feet AGL
Clouds: sky clear below 12,000 feet AGL
Weather: no significant weather observed at this time

METAR text: ZSNJ 201200Z 31003MPS 8000 NSC 18/16 Q1007 NOSIG
Conditions at: ZSNJ (NANJING/LUKOU , CN) observed 1200 UTC 20 March 2019
Temperature: 18.0°C (64°F)
Dewpoint: 16.0°C (61°F) [RH = 88%]
Pressure (altimeter): 29.73 inches Hg (1007.0 mb)
Winds: from the NW (310 degrees) at 7 MPH (6 knots; 3.1 m/s)
Visibility: 5 miles ( 8 km)
Ceiling: at least 12,000 feet AGL
Clouds: sky clear below 12,000 feet AGL
Weather: no significant weather observed at this time

METAR text: ZSNJ 201100Z 29003MPS 8000 NSC 19/17 Q1005 NOSIG
Conditions at: ZSNJ (NANJING/LUKOU , CN) observed 1100 UTC 20 March 2019
Temperature: 19.0°C (66°F)
Dewpoint: 17.0°C (63°F) [RH = 88%]
Pressure (altimeter): 29.68 inches Hg (1005.0 mb)
Winds: from the WNW (290 degrees) at 7 MPH (6 knots; 3.1 m/s)
Visibility: 5 miles ( 8 km)
Ceiling: at least 12,000 feet AGL
Clouds: sky clear below 12,000 feet AGL
Weather: no significant weather observed at this time

METAR text: ZSNJ 201000Z 30003MPS 9000 NSC 19/17 Q1004 NOSIG
Conditions at: ZSNJ (NANJING/LUKOU , CN) observed 1000 UTC 20 March 2019
Temperature: 19.0°C (66°F)
Dewpoint: 17.0°C (63°F) [RH = 88%]
Pressure (altimeter): 29.65 inches Hg (1004.0 mb)
Winds: from the WNW (300 degrees) at 7 MPH (6 knots; 3.1 m/s)
Visibility: 6 miles ( 9 km)
Ceiling: at least 12,000 feet AGL
Clouds: sky clear below 12,000 feet AGL
Weather: no significant weather observed at this time

METAR text: ZSNJ 200900Z 28003MPS 260V320 9000 NSC 20/18 Q1003 NOSIG
Conditions at: ZSNJ (NANJING/LUKOU , CN) observed 0900 UTC 20 March 2019
Temperature: 20.0°C (68°F)
Dewpoint: 18.0°C (64°F) [RH = 88%]
Pressure (altimeter): 29.62 inches Hg (1003.0 mb)
Winds: from the W (280 degrees) at 7 MPH (6 knots; 3.1 m/s)
Visibility: 6 miles ( 9 km)
Ceiling: at least 12,000 feet AGL
Clouds: sky clear below 12,000 feet AGL
Weather: no significant weather observed at this time

METAR text: ZSNJ 200800Z 27003MPS 8000 NSC 20/18 Q1002 RETS NOSIG
Conditions at: ZSNJ (NANJING/LUKOU , CN) observed 0800 UTC 20 March 2019
Temperature: 20.0°C (68°F)
Dewpoint: 18.0°C (64°F) [RH = 88%]
Pressure (altimeter): 29.59 inches Hg (1002.0 mb)
Winds: from the W (270 degrees) at 7 MPH (6 knots; 3.1 m/s)
Visibility: 5 miles ( 8 km)
Ceiling: at least 12,000 feet AGL
Clouds: sky clear below 12,000 feet AGL
Weather: no significant weather observed at this time

METAR text: ZSNJ 200700Z 29003MPS 9999 -RA SCT033 20/18 Q1002 RETSRA BECMG TL0720 TSRA BKN012 FEW030CB
Conditions at: ZSNJ (NANJING/LUKOU , CN) observed 0700 UTC 20 March 2019
Temperature: 20.0°C (68°F)
Dewpoint: 18.0°C (64°F) [RH = 88%]
Pressure (altimeter): 29.59 inches Hg (1002.0 mb)
Winds: from the WNW (290 degrees) at 7 MPH (6 knots; 3.1 m/s)
Visibility: 6 or more miles (10+ km)
Ceiling: at least 12,000 feet AGL
Clouds: scattered clouds at 3300 feet AGL
Weather: -RA  (light rain)

METAR text: ZSNJ 200600Z 30004MPS 270V330 3500 TSRA BR BKN014 FEW033CB 20/19 Q1002 BECMG TL0630 -SHRA BKN016 FEW033CB
Conditions at: ZSNJ (NANJING/LUKOU , CN) observed 0600 UTC 20 March 2019
Temperature: 20.0°C (68°F)
Dewpoint: 19.0°C (66°F) [RH = 94%]
Pressure (altimeter): 29.59 inches Hg (1002.0 mb)
Winds: from the WNW (300 degrees) at 9 MPH (8 knots; 4.1 m/s)
Visibility: 2.17 miles (3.49 km)
Ceiling: 1400 feet AGL
Clouds: broken clouds at 1400 feet AGL
few clouds at 3300 feet AGL
Weather: TSRA BR  (rain associated with thunderstorm(s), mist)

METAR text: ZSNJ 200500Z 27009MPS 9999 SCT033 26/18 Q1001 NOSIG
Conditions at: ZSNJ (NANJING/LUKOU , CN) observed 0500 UTC 20 March 2019
Temperature: 26.0°C (79°F)
Dewpoint: 18.0°C (64°F) [RH = 61%]
Pressure (altimeter): 29.56 inches Hg (1001.0 mb)
Winds: from the W (270 degrees) at 20 MPH (17 knots; 8.7 m/s)
Visibility: 6 or more miles (10+ km)
Ceiling: at least 12,000 feet AGL
Clouds: scattered clouds at 3300 feet AGL
Weather: no significant weather observed at this time

METAR text: ZSNJ 200400Z 25008MPS 8000 SCT025 23/19 Q1001 NOSIG
Conditions at: ZSNJ (NANJING/LUKOU , CN) observed 0400 UTC 20 March 2019
Temperature: 23.0°C (73°F)
Dewpoint: 19.0°C (66°F) [RH = 78%]
Pressure (altimeter): 29.56 inches Hg (1001.0 mb)
Winds: from the WSW (250 degrees) at 18 MPH (16 knots; 8.2 m/s)
Visibility: 5 miles ( 8 km)
Ceiling: at least 12,000 feet AGL
Clouds: scattered clouds at 2500 feet AGL
Weather: no significant weather observed at this time

METAR text: ZSNJ 200300Z 23007MPS CAVOK 24/17 Q1000 NOSIG
Conditions at: ZSNJ (NANJING/LUKOU , CN) observed 0300 UTC 20 March 2019
Temperature: 24.0°C (75°F)
Dewpoint: 17.0°C (63°F) [RH = 65%]
Pressure (altimeter): 29.53 inches Hg (1000.0 mb)
Winds: from the SW (230 degrees) at 16 MPH (14 knots; 7.2 m/s)
Visibility: 6 or more miles (10+ km)
Ceiling: ceiling and visibility are OK
Clouds: unknown
Weather: no significant weather observed at this time

METAR text: ZSNJ 200200Z 20006MPS 170V230 CAVOK 24/17 Q1001 NOSIG
Conditions at: ZSNJ (NANJING/LUKOU , CN) observed 0200 UTC 20 March 2019
Temperature: 24.0°C (75°F)
Dewpoint: 17.0°C (63°F) [RH = 65%]
Pressure (altimeter): 29.56 inches Hg (1001.0 mb)
Winds: from the SSW (200 degrees) at 14 MPH (12 knots; 6.2 m/s)
Visibility: 6 or more miles (10+ km)
Ceiling: ceiling and visibility are OK
Clouds: unknown
Weather: no significant weather observed at this time

METAR text: ZSNJ 200100Z 17005MPS 150V210 8000 NSC 20/16 Q1001 NOSIG
Conditions at: ZSNJ (NANJING/LUKOU , CN) observed 0100 UTC 20 March 2019
Temperature: 20.0°C (68°F)
Dewpoint: 16.0°C (61°F) [RH = 78%]
Pressure (altimeter): 29.56 inches Hg (1001.0 mb)
Winds: from the S (170 degrees) at 12 MPH (10 knots; 5.1 m/s)
Visibility: 5 miles ( 8 km)
Ceiling: at least 12,000 feet AGL
Clouds: sky clear below 12,000 feet AGL
Weather: no significant weather observed at this time

METAR text: ZSNJ 200000Z 17005MPS 130V210 8000 NSC 18/13 Q1002 NOSIG
Conditions at: ZSNJ (NANJING/LUKOU , CN) observed 0000 UTC 20 March 2019
Temperature: 18.0°C (64°F)
Dewpoint: 13.0°C (55°F) [RH = 73%]
Pressure (altimeter): 29.59 inches Hg (1002.0 mb)
Winds: from the S (170 degrees) at 12 MPH (10 knots; 5.1 m/s)
Visibility: 5 miles ( 8 km)
Ceiling: at least 12,000 feet AGL
Clouds: sky clear below 12,000 feet AGL
Weather: no significant weather observed at this time

METAR text: ZSNJ 192300Z 15003MPS 6000 NSC 15/13 Q1002 NOSIG
Conditions at: ZSNJ (NANJING/LUKOU , CN) observed 2300 UTC 19 March 2019
Temperature: 15.0°C (59°F)
Dewpoint: 13.0°C (55°F) [RH = 88%]
Pressure (altimeter): 29.59 inches Hg (1002.0 mb)
Winds: from the SSE (150 degrees) at 7 MPH (6 knots; 3.1 m/s)
Visibility: 4 miles ( 6 km)
Ceiling: at least 12,000 feet AGL
Clouds: sky clear below 12,000 feet AGL
Weather: no significant weather observed at this time

METAR text: ZSNJ 192200Z 10002MPS 350V150 5000 -SHRA BR BKN040 FEW040CB 14/13 Q1003 RETSRA NOSIG
Conditions at: ZSNJ (NANJING/LUKOU , CN) observed 2200 UTC 19 March 2019
Temperature: 14.0°C (57°F)
Dewpoint: 13.0°C (55°F) [RH = 94%]
Pressure (altimeter): 29.62 inches Hg (1003.0 mb)
Winds: from the E (100 degrees) at 5 MPH (4 knots; 2.1 m/s)
Visibility: 3 miles ( 5 km)
Ceiling: 4000 feet AGL
Clouds: broken clouds at 4000 feet AGL
few clouds at 4000 feet AGL
Weather: -SHRA BR  (light rain showers, mist)

METAR text: ZSNJ 192100Z 09003MPS 9000 FEW040CB 14/11 Q1003 BECMG TL2120 -TSRA
Conditions at: ZSNJ (NANJING/LUKOU , CN) observed 2100 UTC 19 March 2019
Temperature: 14.0°C (57°F)
Dewpoint: 11.0°C (52°F) [RH = 82%]
Pressure (altimeter): 29.62 inches Hg (1003.0 mb)
Winds: from the E (90 degrees) at 7 MPH (6 knots; 3.1 m/s)
Visibility: 6 miles ( 9 km)
Ceiling: at least 12,000 feet AGL
Clouds: few clouds at 4000 feet AGL
Weather: no significant weather observed at this time

METAR text: ZSNJ 192000Z 13003MPS 9000 NSC 14/12 Q1004 NOSIG
Conditions at: ZSNJ (NANJING/LUKOU , CN) observed 2000 UTC 19 March 2019
Temperature: 14.0°C (57°F)
Dewpoint: 12.0°C (54°F) [RH = 88%]
Pressure (altimeter): 29.65 inches Hg (1004.0 mb)
Winds: from the SE (130 degrees) at 7 MPH (6 knots; 3.1 m/s)
Visibility: 6 miles ( 9 km)
Ceiling: at least 12,000 feet AGL
Clouds: sky clear below 12,000 feet AGL
Weather: no significant weather observed at this time

METAR text: ZSNJ 191900Z 12004MPS 8000 NSC 14/11 Q1005 RETSRA NOSIG
Conditions at: ZSNJ (NANJING/LUKOU , CN) observed 1900 UTC 19 March 2019
Temperature: 14.0°C (57°F)
Dewpoint: 11.0°C (52°F) [RH = 82%]
Pressure (altimeter): 29.68 inches Hg (1005.0 mb)
Winds: from the ESE (120 degrees) at 9 MPH (8 knots; 4.1 m/s)
Visibility: 5 miles ( 8 km)
Ceiling: at least 12,000 feet AGL
Clouds: sky clear below 12,000 feet AGL
Weather: no significant weather observed at this time

METAR text: ZSNJ 191800Z 36002MPS 320V090 3000 TSRA BR BKN030 SCT030CB 15/11 Q1008 NOSIG
Conditions at: ZSNJ (NANJING/LUKOU , CN) observed 1800 UTC 19 March 2019
Temperature: 15.0°C (59°F)
Dewpoint: 11.0°C (52°F) [RH = 77%]
Pressure (altimeter): 29.76 inches Hg (1008.0 mb)
Winds: from the N (360 degrees) at 5 MPH (4 knots; 2.1 m/s)
Visibility: 1.86 miles (2.99 km)
Ceiling: 3000 feet AGL
Clouds: broken clouds at 3000 feet AGL
scattered clouds at 3000 feet AGL
Weather: TSRA BR  (rain associated with thunderstorm(s), mist)

METAR text: ZSNJ 191700Z 12003MPS CAVOK 16/09 Q1007 NOSIG
Conditions at: ZSNJ (NANJING/LUKOU , CN) observed 1700 UTC 19 March 2019
Temperature: 16.0°C (61°F)
Dewpoint: 9.0°C (48°F) [RH = 63%]
Pressure (altimeter): 29.73 inches Hg (1007.0 mb)
Winds: from the ESE (120 degrees) at 7 MPH (6 knots; 3.1 m/s)
Visibility: 6 or more miles (10+ km)
Ceiling: ceiling and visibility are OK
Clouds: unknown
Weather: no significant weather observed at this time

METAR text: ZSNJ 191600Z 13004MPS 8000 NSC 16/09 Q1009 NOSIG
Conditions at: ZSNJ (NANJING/LUKOU , CN) observed 1600 UTC 19 March 2019
Temperature: 16.0°C (61°F)
Dewpoint: 9.0°C (48°F) [RH = 63%]
Pressure (altimeter): 29.79 inches Hg (1009.0 mb)
Winds: from the SE (130 degrees) at 9 MPH (8 knots; 4.1 m/s)
Visibility: 5 miles ( 8 km)
Ceiling: at least 12,000 feet AGL
Clouds: sky clear below 12,000 feet AGL
Weather: no significant weather observed at this time

METAR text: ZSNJ 191500Z 12006MPS 6000 NSC 17/10 Q1009 NOSIG
Conditions at: ZSNJ (NANJING/LUKOU , CN) observed 1500 UTC 19 March 2019
Temperature: 17.0°C (63°F)
Dewpoint: 10.0°C (50°F) [RH = 63%]
Pressure (altimeter): 29.79 inches Hg (1009.0 mb)
Winds: from the ESE (120 degrees) at 14 MPH (12 knots; 6.2 m/s)
Visibility: 4 miles ( 6 km)
Ceiling: at least 12,000 feet AGL
Clouds: sky clear below 12,000 feet AGL
Weather: no significant weather observed at this time

METAR text: ZSNJ 191400Z 13005MPS 6000 NSC 17/11 Q1010 NOSIG
Conditions at: ZSNJ (NANJING/LUKOU , CN) observed 1400 UTC 19 March 2019
Temperature: 17.0°C (63°F)
Dewpoint: 11.0°C (52°F) [RH = 68%]
Pressure (altimeter): 29.82 inches Hg (1010.0 mb)
Winds: from the SE (130 degrees) at 12 MPH (10 knots; 5.1 m/s)
Visibility: 4 miles ( 6 km)
Ceiling: at least 12,000 feet AGL
Clouds: sky clear below 12,000 feet AGL
Weather: no significant weather observed at this time

METAR text: ZSNJ 191300Z 13005MPS 6000 NSC 17/10 Q1010 NOSIG
Conditions at: ZSNJ (NANJING/LUKOU , CN) observed 1300 UTC 19 March 2019
Temperature: 17.0°C (63°F)
Dewpoint: 10.0°C (50°F) [RH = 63%]
Pressure (altimeter): 29.82 inches Hg (1010.0 mb)
Winds: from the SE (130 degrees) at 12 MPH (10 knots; 5.1 m/s)
Visibility: 4 miles ( 6 km)
Ceiling: at least 12,000 feet AGL
Clouds: sky clear below 12,000 feet AGL
Weather: no significant weather observed at this time

METAR text: ZSNJ 191200Z 12006MPS 6000 NSC 17/09 Q1010 NOSIG
Conditions at: ZSNJ (NANJING/LUKOU , CN) observed 1200 UTC 19 March 2019
Temperature: 17.0°C (63°F)
Dewpoint: 9.0°C (48°F) [RH = 59%]
Pressure (altimeter): 29.82 inches Hg (1010.0 mb)
Winds: from the ESE (120 degrees) at 14 MPH (12 knots; 6.2 m/s)
Visibility: 4 miles ( 6 km)
Ceiling: at least 12,000 feet AGL
Clouds: sky clear below 12,000 feet AGL
Weather: no significant weather observed at this time

METAR text: ZSNJ 191100Z 12005MPS 6000 NSC 18/09 Q1010 NOSIG
Conditions at: ZSNJ (NANJING/LUKOU , CN) observed 1100 UTC 19 March 2019
Temperature: 18.0°C (64°F)
Dewpoint: 9.0°C (48°F) [RH = 56%]
Pressure (altimeter): 29.82 inches Hg (1010.0 mb)
Winds: from the ESE (120 degrees) at 12 MPH (10 knots; 5.1 m/s)
Visibility: 4 miles ( 6 km)
Ceiling: at least 12,000 feet AGL
Clouds: sky clear below 12,000 feet AGL
Weather: no significant weather observed at this time

METAR text: ZSNJ 191000Z 11005MPS 6000 NSC 19/10 Q1010 NOSIG
Conditions at: ZSNJ (NANJING/LUKOU , CN) observed 1000 UTC 19 March 2019
Temperature: 19.0°C (66°F)
Dewpoint: 10.0°C (50°F) [RH = 56%]
Pressure (altimeter): 29.82 inches Hg (1010.0 mb)
Winds: from the ESE (110 degrees) at 12 MPH (10 knots; 5.1 m/s)
Visibility: 4 miles ( 6 km)
Ceiling: at least 12,000 feet AGL
Clouds: sky clear below 12,000 feet AGL
Weather: no significant weather observed at this time

METAR text: ZSNJ 190900Z 11006MPS 090V150 6000 NSC 20/11 Q1011 NOSIG
Conditions at: ZSNJ (NANJING/LUKOU , CN) observed 0900 UTC 19 March 2019
Temperature: 20.0°C (68°F)
Dewpoint: 11.0°C (52°F) [RH = 56%]
Pressure (altimeter): 29.85 inches Hg (1011.0 mb)
Winds: from the ESE (110 degrees) at 14 MPH (12 knots; 6.2 m/s)
Visibility: 4 miles ( 6 km)
Ceiling: at least 12,000 feet AGL
Clouds: sky clear below 12,000 feet AGL
Weather: no significant weather observed at this time

METAR text: ZSNJ 190800Z 12007MPS 8000 NSC 21/10 Q1011 NOSIG
Conditions at: ZSNJ (NANJING/LUKOU , CN) observed 0800 UTC 19 March 2019
Temperature: 21.0°C (70°F)
Dewpoint: 10.0°C (50°F) [RH = 49%]
Pressure (altimeter): 29.85 inches Hg (1011.0 mb)
Winds: from the ESE (120 degrees) at 16 MPH (14 knots; 7.2 m/s)
Visibility: 5 miles ( 8 km)
Ceiling: at least 12,000 feet AGL
Clouds: sky clear below 12,000 feet AGL
Weather: no significant weather observed at this time

METAR text: ZSNJ 190700Z 12005G10MPS 090V150 8000 NSC 22/11 Q1012 NOSIG
Conditions at: ZSNJ (NANJING/LUKOU , CN) observed 0700 UTC 19 March 2019
Temperature: 22.0°C (72°F)
Dewpoint: 11.0°C (52°F) [RH = 50%]
Pressure (altimeter): 29.88 inches Hg (1012.0 mb)
Winds: from the ESE (120 degrees) at 12 MPH (10 knots; 5.1 m/s)
gusting to 22 MPH (19 knots; 9.8 m/s)
Visibility: 5 miles ( 8 km)
Ceiling: at least 12,000 feet AGL
Clouds: sky clear below 12,000 feet AGL
Weather: no significant weather observed at this time

METAR text: ZSNJ 190600Z 13005MPS 090V150 CAVOK 22/09 Q1013 NOSIG
Conditions at: ZSNJ (NANJING/LUKOU , CN) observed 0600 UTC 19 March 2019
Temperature: 22.0°C (72°F)
Dewpoint: 9.0°C (48°F) [RH = 43%]
Pressure (altimeter): 29.91 inches Hg (1013.0 mb)
Winds: from the SE (130 degrees) at 12 MPH (10 knots; 5.1 m/s)
Visibility: 6 or more miles (10+ km)
Ceiling: ceiling and visibility are OK
Clouds: unknown
Weather: no significant weather observed at this time

METAR text: ZSNJ 190500Z 14004MPS 110V180 CAVOK 21/09 Q1015 NOSIG
Conditions at: ZSNJ (NANJING/LUKOU , CN) observed 0500 UTC 19 March 2019
Temperature: 21.0°C (70°F)
Dewpoint: 9.0°C (48°F) [RH = 46%]
Pressure (altimeter): 29.97 inches Hg (1015.0 mb)
Winds: from the SE (140 degrees) at 9 MPH (8 knots; 4.1 m/s)
Visibility: 6 or more miles (10+ km)
Ceiling: ceiling and visibility are OK
Clouds: unknown
Weather: no significant weather observed at this time

METAR text: ZSNJ 190400Z 15005MPS 120V190 9999 FEW033 20/10 Q1016 NOSIG
Conditions at: ZSNJ (NANJING/LUKOU , CN) observed 0400 UTC 19 March 2019
Temperature: 20.0°C (68°F)
Dewpoint: 10.0°C (50°F) [RH = 53%]
Pressure (altimeter): 30.00 inches Hg (1016.0 mb)
Winds: from the SSE (150 degrees) at 12 MPH (10 knots; 5.1 m/s)
Visibility: 6 or more miles (10+ km)
Ceiling: at least 12,000 feet AGL
Clouds: few clouds at 3300 feet AGL
Weather: no significant weather observed at this time

Forecast for: ZSNJ (NANJING/LUKOU , CN)
Text: TAF ZSNJ 200920Z 2012/2112 31003MPS 3000 BR NSC TX18/2106Z TN12/2022Z
Forecast period: 1200 UTC 20 March 2019 to 0400 UTC 21 March 2019
Forecast type: FROM: standard forecast or significant change
Winds: from the NW (310 degrees) at 7 MPH (6 knots; 3.1 m/s)
Visibility: 1.86 miles (2.99 km)
Ceiling: unknown
Clouds: missing
Weather: BR  (mist)
Text: BECMG 2104/2106 04006MPS
Forecast period: 0400 to 1200 UTC 21 March 2019
Forecast type: BECOMING: Conditions expected to become as follows by 0600 UTC 21 March 2019
Winds: from the NE (40 degrees) at 14 MPH (12 knots; 6.2 m/s)
Visibility: 1.86 miles (2.99 km)
Ceiling: unknown
Clouds: missing
Weather: BR  (mist)
Text: PROB40
Forecast period: 2100 UTC 20 March 2019 to 0100 UTC 21 March 2019
Forecast type: TEMPORARY: The following changes expected for less than half the time period
Visibility: 0.50 miles (0.80 km)
Ceiling: unknown
Clouds: missing
Weather: FG  (fog)